Time;durP1;ratioP1;P1;durP2;ratioP2;P2;SDS_P1;SDS_P2;PMS_P1;PMS_P2;Temp;Humidity;BMP_temperature;BMP_pressure;BME280_temperature;BME280_humidity;BME280_pressure;Samples;Min_cycle;Max_cycle;Signal;HPM_P1;HPM_P2
2021/12/05 00:17:55;;;;;;;;;1.00;1.00;;;;;6.09;72.00;99726.50;5054144;28;45764;-79
2021/12/05 00:22:56;;;;;;;;;1.00;1.00;;;;;5.91;72.95;99681.88;5039113;28;45533;-79
2021/12/05 00:25:28;;;;;;;;;0.50;0.50;;;;;5.95;72.26;99687.13;5056132;28;45432;-80
2021/12/05 00:33:52;;;;;;;;;4.50;1.00;;;;;5.99;72.45;99694.16;5079001;27;45322;-78
2021/12/05 00:39:15;;;;;;;;;0.00;0.00;;;;;6.05;72.55;99714.28;5078067;28;45936;-78
2021/12/05 00:41:58;;;;;;;;;0.00;0.00;;;;;6.06;73.05;99702.94;5068422;28;45444;-82
2021/12/05 00:45:20;;;;;;;;;0.75;0.75;;;;;6.06;72.42;99710.78;5071664;28;45633;-76
2021/12/05 00:52:58;;;;;;;;;0.00;0.00;;;;;6.03;72.25;99702.91;5075312;28;45381;-82
2021/12/05 01:14:52;;;;;;;;;2.00;0.75;;;;;6.25;71.95;99656.91;4956386;28;45250;-76
2021/12/05 01:16:49;;;;;;;;;7.00;0.00;;;;;6.37;71.37;99669.19;4944159;28;45382;-79
2021/12/05 01:19:16;;;;;;;;;0.00;0.00;;;;;6.31;71.77;99656.06;4936733;28;45329;-79
2021/12/05 01:21:44;;;;;;;;;0.50;0.50;;;;;6.17;71.41;99630.69;4941489;28;46475;-80
2021/12/05 01:24:26;;;;;;;;;0.50;0.50;;;;;6.42;71.05;99659.63;4955768;28;45981;-81
2021/12/05 01:39:47;;;;;;;;;0.00;0.00;;;;;6.09;72.33;99642.84;4975860;28;45471;-82
2021/12/05 01:52:58;;;;;;;;;0.00;0.00;;;;;5.84;71.90;99625.16;5077242;28;45405;-83
2021/12/05 01:56:05;;;;;;;;;3.00;1.00;;;;;5.92;72.29;99633.97;5077121;28;45434;-83
2021/12/05 02:36:24;;;;;;;;;1.00;1.00;;;;;5.44;73.41;99633.50;4920568;28;45919;-80
2021/12/05 02:41:25;;;;;;;;;0.00;0.00;;;;;5.32;73.92;99620.31;4939558;28;45434;-82
2021/12/05 02:46:35;;;;;;;;;0.00;0.00;;;;;5.34;74.43;99610.75;4937594;28;45682;-81
2021/12/05 02:49:04;;;;;;;;;0.00;0.00;;;;;5.44;74.72;99633.50;4933922;28;45533;-81
2021/12/05 02:51:31;;;;;;;;;0.00;0.00;;;;;5.35;73.79;99602.06;4904578;28;45331;-82
2021/12/05 02:54:17;;;;;;;;;1.50;0.50;;;;;5.47;74.24;99627.41;4920814;28;45371;-83
2021/12/05 02:56:48;;;;;;;;;0.00;0.00;;;;;5.23;74.00;99575.84;4956919;28;45368;-79
2021/12/05 02:59:23;;;;;;;;;0.00;0.00;;;;;5.31;74.22;99600.31;5017832;28;45525;-81
2021/12/05 03:01:56;;;;;;;;;0.00;0.00;;;;;5.04;74.59;99566.06;5037663;28;45339;-81
2021/12/05 03:04:24;;;;;;;;;0.00;0.00;;;;;5.34;74.41;99622.94;5037667;28;45419;-82
2021/12/05 03:06:52;;;;;;;;;0.75;0.00;;;;;5.34;74.50;99620.34;5035568;28;45573;-80
2021/12/05 03:09:19;;;;;;;;;0.00;0.00;;;;;5.23;74.73;99601.09;5032884;28;45225;-82
2021/12/05 03:11:46;;;;;;;;;0.00;0.00;;;;;5.30;74.32;99611.56;5035935;28;45324;-81
2021/12/05 03:14:12;;;;;;;;;0.00;0.00;;;;;5.34;74.28;99615.13;5079818;27;45453;-81
2021/12/05 03:16:39;;;;;;;;;0.00;0.00;;;;;5.00;74.78;99561.66;5079010;27;46529;-81
2021/12/05 03:19:09;;;;;;;;;0.00;0.00;;;;;5.17;74.66;99598.38;5058463;28;45433;-81
2021/12/05 03:21:37;;;;;;;;;0.25;0.00;;;;;5.26;75.02;99606.31;5059640;28;45216;-80
2021/12/05 03:24:04;;;;;;;;;0.00;0.00;;;;;5.09;74.91;99590.47;5059922;28;45805;-80
2021/12/05 03:26:35;;;;;;;;;0.75;0.75;;;;;5.22;75.16;99613.25;5076378;27;45505;-80
2021/12/05 03:29:04;;;;;;;;;0.00;0.00;;;;;5.21;75.17;99615.81;5078702;27;45618;-80
2021/12/05 03:31:31;;;;;;;;;0.00;0.00;;;;;5.20;75.12;99617.56;5080332;28;45471;-82
2021/12/05 03:33:58;;;;;;;;;0.25;0.00;;;;;5.15;75.44;99609.69;5080780;27;45428;-83
2021/12/05 03:36:25;;;;;;;;;0.00;0.00;;;;;5.13;74.95;99589.66;5079597;27;46419;-82
2021/12/05 03:38:51;;;;;;;;;0.00;0.00;;;;;5.23;74.38;99590.63;5080126;28;45438;-80
2021/12/05 03:41:17;;;;;;;;;0.00;0.00;;;;;5.13;74.77;99574.88;5080437;28;45309;-82
2021/12/05 03:43:47;;;;;;;;;0.00;0.00;;;;;5.05;74.71;99565.22;5080269;28;45267;-80
2021/12/05 03:46:13;;;;;;;;;0.00;0.00;;;;;5.01;74.71;99561.66;5078660;28;46011;-81
2021/12/05 03:48:43;;;;;;;;;0.00;0.00;;;;;4.95;74.60;99568.59;5079573;27;45352;-82
2021/12/05 03:51:12;;;;;;;;;0.50;0.50;;;;;4.88;74.85;99556.31;5079130;27;45522;-80
2021/12/05 03:53:38;;;;;;;;;1.00;1.00;;;;;4.89;74.86;99552.84;5079391;27;45307;-81
2021/12/05 03:56:04;;;;;;;;;0.00;0.00;;;;;5.12;74.98;99572.25;5079055;28;46088;-81
2021/12/05 03:58:31;;;;;;;;;1.00;0.00;;;;;5.24;74.44;99580.19;5079220;28;45311;-80
2021/12/05 04:00:58;;;;;;;;;0.00;0.00;;;;;5.29;73.94;99581.09;5078959;27;45514;-79
2021/12/05 04:03:25;;;;;;;;;0.00;0.00;;;;;5.32;73.94;99573.31;5079419;27;45495;-79
2021/12/05 04:05:50;;;;;;;;;0.00;0.00;;;;;5.25;73.76;99578.47;5078092;27;46665;-79
2021/12/05 04:08:21;;;;;;;;;0.00;0.00;;;;;5.03;74.04;99533.00;5079186;28;45311;-79
2021/12/05 04:10:53;;;;;;;;;0.75;0.00;;;;;5.29;73.70;99581.09;5060593;28;45385;-78
2021/12/05 04:13:19;;;;;;;;;0.00;0.00;;;;;5.27;73.80;99579.34;5079017;28;45191;-80
2021/12/05 04:15:46;;;;;;;;;0.00;0.00;;;;;5.22;73.98;99574.09;5078401;28;46480;-81
2021/12/05 04:18:12;;;;;;;;;0.50;0.00;;;;;4.89;73.55;99524.13;5078830;28;45338;-79
2021/12/05 04:20:37;;;;;;;;;0.00;0.00;;;;;5.05;73.61;99557.38;5078748;27;45495;-80
2021/12/05 04:23:04;;;;;;;;;0.00;0.00;;;;;5.00;73.58;99554.72;5079159;28;45298;-80
2021/12/05 04:25:29;;;;;;;;;0.00;0.00;;;;;5.10;73.79;99582.66;5078299;27;46179;-79
2021/12/05 04:27:55;;;;;;;;;0.25;0.25;;;;;4.85;73.71;99537.16;5077972;28;45290;-81
2021/12/05 04:30:23;;;;;;;;;1.25;1.00;;;;;5.05;73.47;99571.31;5078702;28;45248;-82
2021/12/05 04:32:50;;;;;;;;;0.00;0.00;;;;;5.15;73.82;99574.88;5078135;28;45398;-80
2021/12/05 04:35:17;;;;;;;;;1.00;0.00;;;;;5.05;73.41;99560.00;5078620;27;46319;-80
2021/12/05 04:37:43;;;;;;;;;1.00;0.00;;;;;5.13;73.10;99574.00;5077759;28;45531;-80
2021/12/05 04:40:10;;;;;;;;;0.00;0.00;;;;;4.97;73.19;99538.16;5078659;28;45247;-81
2021/12/05 04:42:37;;;;;;;;;0.00;0.00;;;;;5.16;72.84;99576.63;5078531;28;45349;-79
2021/12/05 04:45:19;;;;;;;;;1.00;0.00;;;;;4.93;72.79;99531.13;5078007;27;46373;-82
2021/12/05 04:47:45;;;;;;;;;0.00;0.00;;;;;4.90;73.05;99539.81;5067228;28;45331;-80
2021/12/05 04:50:11;;;;;;;;;0.00;0.00;;;;;5.11;73.17;99571.34;5078574;28;45533;-80
2021/12/05 04:52:37;;;;;;;;;0.00;0.00;;;;;5.05;74.04;99562.59;5078564;28;45390;-80
2021/12/05 04:55:04;;;;;;;;;1.50;0.00;;;;;5.01;73.67;99566.03;5076600;28;45326;-79
2021/12/05 04:57:30;;;;;;;;;0.00;0.00;;;;;4.69;73.24;99506.53;5077305;28;45356;-79
2021/12/05 04:59:55;;;;;;;;;0.00;0.00;;;;;5.00;73.80;99559.94;5060388;28;45242;-81
2021/12/05 05:02:21;;;;;;;;;0.00;0.00;;;;;4.82;73.56;99547.53;5078115;28;45499;-80
2021/12/05 05:04:49;;;;;;;;;1.50;0.75;;;;;4.91;74.04;99559.81;5077771;28;46028;-80
2021/12/05 05:07:21;;;;;;;;;0.00;0.00;;;;;4.75;73.79;99529.22;5077339;28;45528;-80
2021/12/05 05:09:47;;;;;;;;;0.25;0.00;;;;;4.89;73.53;99555.47;5078449;27;45422;-80
2021/12/05 05:12:13;;;;;;;;;0.00;0.00;;;;;4.84;74.21;99548.47;5078873;27;45295;-81
2021/12/05 05:14:39;;;;;;;;;0.00;0.00;;;;;4.55;74.43;99501.16;5076819;28;45560;-80
2021/12/05 05:17:05;;;;;;;;;0.00;0.00;;;;;4.73;74.25;99539.63;5078095;28;45256;-81
2021/12/05 05:19:38;;;;;;;;;0.00;0.00;;;;;4.81;74.46;99551.00;5078276;28;45286;-82
2021/12/05 05:25:39;;;;;;;;;0.00;0.00;;;;;4.91;74.46;99557.22;5077217;27;45363;-79
2021/12/05 05:51:40;;;;;;;;;0.00;0.00;;;;;5.33;73.01;99556.78;5035190;28;45307;-79
2021/12/05 05:54:05;;;;;;;;;0.00;0.00;;;;;5.43;73.62;99555.13;5034830;28;45252;-79
2021/12/05 05:56:32;;;;;;;;;1.00;1.00;;;;;5.38;73.49;99530.72;5033856;28;45847;-79
2021/12/05 05:59:05;;;;;;;;;0.00;0.00;;;;;5.49;72.55;99541.25;5035925;28;45317;-76
2021/12/05 06:04:06;;;;;;;;;0.25;0.00;;;;;5.54;72.82;99534.34;5017867;28;45558;-80
2021/12/05 06:06:32;;;;;;;;;0.00;0.00;;;;;5.36;73.13;99506.31;5018396;28;46206;-78
2021/12/05 06:08:58;;;;;;;;;0.00;0.00;;;;;5.56;73.64;99535.22;5032907;28;45268;-79
2021/12/05 06:11:24;;;;;;;;;0.00;0.00;;;;;5.42;73.47;99522.94;5027128;28;45364;-79
2021/12/05 06:13:51;;;;;;;;;0.25;0.25;;;;;5.44;73.48;99510.75;5038319;28;45500;-78
2021/12/05 06:16:17;;;;;;;;;1.00;1.00;;;;;5.48;73.87;99513.38;5081717;27;45586;-83
2021/12/05 06:18:43;;;;;;;;;0.00;0.00;;;;;5.38;73.94;99521.13;5080743;27;45450;-81
2021/12/05 06:21:10;;;;;;;;;0.00;0.00;;;;;5.35;74.06;99508.06;5081075;27;45438;-83
2021/12/05 06:23:37;;;;;;;;;0.00;0.00;;;;;5.40;73.70;99502.91;5081957;28;45247;-81
2021/12/05 06:26:05;;;;;;;;;0.00;0.00;;;;;5.54;73.53;99529.09;5081194;28;45230;-78
2021/12/05 06:47:02;;;;;;;;;0.50;0.50;;;;;5.43;73.57;99515.97;5080208;28;45373;-83
2021/12/05 06:49:27;;;;;;;;;1.00;1.00;;;;;5.50;73.52;99541.28;5079510;27;45466;-81
2021/12/05 06:51:52;;;;;;;;;0.00;0.00;;;;;5.32;73.34;99515.00;5080476;27;45565;-83
2021/12/05 06:54:18;;;;;;;;;0.00;0.00;;;;;5.32;73.94;99521.09;5079273;28;45413;-79
2021/12/05 06:56:43;;;;;;;;;0.50;0.00;;;;;5.48;73.21;99545.59;5079248;27;46739;-79
2021/12/05 06:59:09;;;;;;;;;1.00;0.00;;;;;5.46;73.70;99554.28;5080056;27;45529;-79
2021/12/05 07:01:34;;;;;;;;;1.00;1.00;;;;;5.52;73.50;99573.50;5080749;28;45231;-81
2021/12/05 07:04:09;;;;;;;;;3.25;0.00;;;;;5.58;73.58;99568.31;5080554;28;45342;-81
2021/12/05 07:06:38;;;;;;;;;0.00;0.00;;;;;5.62;74.03;99561.41;5080755;28;45506;-82
2021/12/05 07:09:08;;;;;;;;;1.00;0.00;;;;;5.63;74.04;99563.16;5079783;27;45348;-80
2021/12/05 07:14:43;;;;;;;;;1.00;0.00;;;;;5.60;75.43;99543.09;5049076;28;45458;-82
2021/12/05 07:22:18;;;;;;;;;0.00;0.00;;;;;5.58;74.56;99542.19;5080032;27;45375;-80
2021/12/05 07:24:51;;;;;;;;;0.50;0.00;;;;;5.61;75.58;99539.63;5080339;28;45378;-81
2021/12/05 07:43:55;;;;;;;;;5.00;1.00;;;;;5.63;75.76;99547.47;5077351;27;45180;-82
2021/12/05 07:46:20;;;;;;;;;0.00;0.00;;;;;5.78;75.12;99571.13;5080087;27;45424;-82
2021/12/05 07:48:47;;;;;;;;;1.00;1.00;;;;;5.75;75.45;99571.06;5079024;27;45210;-78
2021/12/05 07:56:20;;;;;;;;;0.50;0.50;;;;;5.75;74.97;99558.00;5079094;27;45316;-81
2021/12/05 07:58:56;;;;;;;;;0.00;0.00;;;;;5.74;75.10;99564.09;5079162;28;45351;-83
2021/12/05 08:15:17;;;;;;;;;1.75;0.00;;;;;5.97;75.80;99583.50;5061107;27;45335;-79
2021/12/05 08:17:52;;;;;;;;;2.00;1.00;;;;;5.96;76.59;99568.69;5077947;28;45313;-80
2021/12/05 08:20:21;;;;;;;;;1.00;1.00;;;;;5.81;76.57;99550.22;5073693;28;45740;-77
2021/12/05 08:22:47;;;;;;;;;1.00;1.00;;;;;5.83;77.74;99539.78;5076536;27;45393;-80
2021/12/05 08:25:13;;;;;;;;;2.50;1.75;;;;;6.03;76.99;99566.09;5075875;28;45474;-80
2021/12/05 08:27:49;;;;;;;;;0.00;0.00;;;;;5.92;76.66;99552.94;5064697;28;45597;-76
2021/12/05 08:30:26;;;;;;;;;2.00;1.00;;;;;6.03;77.17;99572.19;5079121;27;45634;-85
2021/12/05 08:41:43;;;;;;;;;1.00;1.00;;;;;6.00;76.56;99573.06;5074075;27;45356;-81
2021/12/05 10:03:37;;;;;;;;;2.00;2.00;;;;;9.93;61.56;99599.94;4978312;28;45381;-83
2021/12/05 10:09:06;;;;;;;;;2.75;2.75;;;;;9.25;63.58;99614.44;5015180;28;45384;-89
2021/12/05 10:36:10;;;;;;;;;2.00;2.00;;;;;8.75;66.90;99617.28;4976805;28;45475;-84
2021/12/05 10:38:48;;;;;;;;;2.50;2.50;;;;;8.61;67.85;99611.19;4975280;28;45318;-84
2021/12/05 10:41:34;;;;;;;;;1.75;1.75;;;;;8.66;68.16;99625.19;4975289;28;45427;-81
2021/12/05 10:44:07;;;;;;;;;2.00;1.00;;;;;8.45;68.12;99608.59;4974866;28;46128;-83
2021/12/05 10:46:34;;;;;;;;;5.25;1.50;;;;;8.46;68.15;99618.22;4970946;28;45295;-80
2021/12/05 10:49:04;;;;;;;;;1.75;1.75;;;;;8.14;68.36;99571.00;4974646;28;45580;-83
2021/12/05 10:51:34;;;;;;;;;2.50;2.00;;;;;8.36;68.68;99616.47;4976377;28;46024;-82
2021/12/05 10:54:08;;;;;;;;;1.25;1.00;;;;;8.30;68.70;99616.47;4980250;28;45438;-80
2021/12/05 10:56:38;;;;;;;;;3.00;1.00;;;;;8.13;68.22;99598.13;4980103;28;45798;-80
2021/12/05 10:59:15;;;;;;;;;4.00;2.50;;;;;8.03;68.78;99592.91;4980049;28;45537;-79
2021/12/05 11:01:50;;;;;;;;;2.00;2.00;;;;;7.95;68.94;99583.28;4978036;28;46296;-76
2021/12/05 11:04:34;;;;;;;;;3.00;2.75;;;;;8.01;69.82;99608.63;4977974;28;45474;-82
2021/12/05 11:07:05;;;;;;;;;2.25;2.25;;;;;8.02;70.49;99593.78;4992289;28;45495;-81
2021/12/05 11:09:33;;;;;;;;;2.00;2.00;;;;;7.84;69.74;99568.44;5020205;28;45538;-84
2021/12/05 11:12:08;;;;;;;;;1.25;1.25;;;;;8.04;70.35;99602.50;5020297;28;45647;-83
2021/12/05 11:14:52;;;;;;;;;3.00;2.75;;;;;7.88;69.56;99604.25;5020550;28;45415;-85
2021/12/05 11:17:21;;;;;;;;;5.25;2.25;;;;;7.59;69.49;99555.31;5020620;28;45356;-81
2021/12/05 11:19:52;;;;;;;;;7.25;3.00;;;;;7.71;70.78;99607.72;5002447;28;44706;-81
2021/12/05 11:22:24;;;;;;;;;2.75;2.75;;;;;7.76;70.62;99594.66;5020094;28;45982;-81
2021/12/05 11:24:57;;;;;;;;;2.25;2.25;;;;;7.58;70.71;99574.53;5002066;28;45507;-78
2021/12/05 11:27:28;;;;;;;;;0.25;0.25;;;;;7.71;70.61;99604.25;5020519;28;45284;-80
2021/12/05 11:30:10;;;;;;;;;5.00;3.75;;;;;7.70;71.84;99599.88;5021061;28;45351;-79
2021/12/05 11:32:54;;;;;;;;;2.25;2.25;;;;;7.63;72.59;99608.59;5001889;28;46707;-80
2021/12/05 11:35:26;;;;;;;;;3.00;2.00;;;;;7.71;72.07;99605.13;5018964;28;45589;-83
2021/12/05 11:37:57;;;;;;;;;17.50;11.50;;;;;7.71;72.45;99604.25;5018932;28;45383;-82
2021/12/05 11:40:42;;;;;;;;;6.00;6.00;;;;;7.66;71.85;99614.72;5018361;28;45458;-79
2021/12/05 11:43:12;;;;;;;;;5.50;2.25;;;;;7.48;71.62;99593.75;4942593;28;45616;-84
2021/12/05 11:45:49;;;;;;;;;3.00;3.00;;;;;7.48;72.57;99619.94;4934969;28;45328;-78
2021/12/05 11:48:26;;;;;;;;;3.00;2.75;;;;;7.27;74.24;99602.44;4931309;28;45336;-78
2021/12/05 11:50:52;;;;;;;;;4.00;4.00;;;;;7.24;74.52;99612.03;4938858;28;45465;-80
2021/12/05 11:53:33;;;;;;;;;6.25;5.00;;;;;6.96;73.95;99577.03;4932810;28;46828;-80
2021/12/05 11:55:59;;;;;;;;;2.25;2.25;;;;;7.15;73.64;99634.69;4928687;28;45467;-82
2021/12/05 11:58:24;;;;;;;;;5.25;2.75;;;;;6.82;76.51;99593.56;4922467;28;45536;-83
2021/12/05 12:00:50;;;;;;;;;7.50;6.25;;;;;7.03;75.46;99633.78;4924975;28;45415;-81
2021/12/05 12:03:32;;;;;;;;;1.75;1.75;;;;;7.09;75.87;99639.06;4940263;28;45923;-80
2021/12/05 12:05:58;;;;;;;;;2.00;2.00;;;;;6.92;75.03;99611.94;4924756;28;45490;-81
2021/12/05 12:08:24;;;;;;;;;1.00;1.00;;;;;7.02;74.15;99642.50;4926761;28;45371;-83
2021/12/05 12:10:58;;;;;;;;;3.00;1.50;;;;;6.88;73.89;99624.09;4938408;28;45525;-79
2021/12/05 12:13:29;;;;;;;;;1.00;1.00;;;;;6.70;74.58;99580.44;4937681;28;45564;-79
2021/12/05 12:15:59;;;;;;;;;2.00;2.00;;;;;7.02;73.32;99621.56;4936747;28;45461;-82
2021/12/05 12:18:30;;;;;;;;;1.25;1.25;;;;;6.82;72.59;99603.16;4930046;28;45500;-75
2021/12/05 12:21:00;;;;;;;;;1.25;1.25;;;;;6.87;73.63;99606.66;4984888;28;45446;-77
2021/12/05 12:23:25;;;;;;;;;1.25;1.25;;;;;7.01;72.78;99644.25;5025491;28;46201;-77
2021/12/05 12:25:55;;;;;;;;;0.00;0.00;;;;;6.89;72.54;99611.91;5023586;28;45394;-83
2021/12/05 12:28:22;;;;;;;;;2.00;2.00;;;;;7.12;73.34;99660.88;5018907;28;45409;-84
2021/12/05 12:30:55;;;;;;;;;1.00;1.00;;;;;7.09;71.94;99642.53;5019704;28;45462;-81
2021/12/05 12:33:29;;;;;;;;;0.75;0.75;;;;;7.03;72.52;99653.00;5020451;28;45469;-83
2021/12/05 12:35:55;;;;;;;;;1.00;1.00;;;;;6.94;72.16;99650.31;5020107;28;45566;-79
2021/12/05 12:38:33;;;;;;;;;0.25;0.25;;;;;6.98;72.32;99652.09;5018195;28;45472;-80
2021/12/05 12:41:03;;;;;;;;;7.00;3.50;;;;;6.89;73.02;99633.75;5015500;28;45571;-81
2021/12/05 12:43:44;;;;;;;;;2.00;2.00;;;;;7.09;73.68;99660.00;5020284;28;45604;-81
2021/12/05 12:46:15;;;;;;;;;1.00;1.00;;;;;7.04;72.75;99664.34;5022944;28;45933;-81
2021/12/05 12:48:41;;;;;;;;;1.00;1.00;;;;;6.97;71.85;99673.91;5021468;28;45223;-78
2021/12/05 12:51:07;;;;;;;;;5.25;2.50;;;;;6.99;71.75;99661.72;5023878;28;45307;-76
2021/12/05 12:53:38;;;;;;;;;5.00;3.75;;;;;6.88;72.05;99625.84;5024628;28;46537;-80
2021/12/05 12:56:11;;;;;;;;;2.50;2.50;;;;;7.23;71.92;99665.28;5014442;28;45435;-78
2021/12/05 12:58:43;;;;;;;;;1.00;1.00;;;;;7.13;71.25;99633.81;5016258;28;45408;-78
2021/12/05 13:01:34;;;;;;;;;2.50;2.50;;;;;7.13;71.53;99648.66;5014839;28;45543;-78
2021/12/05 13:12:58;;;;;;;;;1.75;1.75;;;;;7.86;69.12;99677.66;5017062;28;47662;-80
2021/12/05 13:15:48;;;;;;;;;1.00;1.00;;;;;7.80;69.76;99659.31;5014198;28;47610;-79
2021/12/05 13:18:13;;;;;;;;;3.00;1.00;;;;;7.88;69.48;99682.91;5029137;28;45559;-80
2021/12/05 13:20:42;;;;;;;;;3.00;3.00;;;;;7.92;69.23;99695.16;5026598;28;45501;-83
2021/12/05 13:23:18;;;;;;;;;3.00;3.00;;;;;7.93;69.42;99691.69;5018954;28;45440;-83
2021/12/05 13:25:59;;;;;;;;;4.00;2.75;;;;;8.13;69.11;99695.19;4983436;28;47285;-77
2021/12/05 13:28:39;;;;;;;;;6.00;4.50;;;;;8.02;68.68;99677.69;4997684;28;45407;-82
2021/12/05 13:31:45;;;;;;;;;3.50;3.25;;;;;8.14;68.65;99689.06;4997487;28;45272;-80
2021/12/05 13:34:21;;;;;;;;;3.00;3.00;;;;;8.18;68.34;99685.53;4976528;28;45501;-82
2021/12/05 13:36:51;;;;;;;;;3.25;3.00;;;;;8.20;68.98;99693.44;4976030;28;45474;-80
2021/12/05 13:39:57;;;;;;;;;7.00;7.00;;;;;8.08;69.28;99680.31;4978088;28;45276;-82
2021/12/05 13:42:35;;;;;;;;;6.00;6.00;;;;;8.05;69.35;99699.53;4960727;28;45486;-81
2021/12/05 13:45:04;;;;;;;;;24.75;23.75;;;;;7.89;69.84;99679.41;4989806;28;45567;-80
2021/12/05 13:47:37;;;;;;;;;4.50;4.50;;;;;7.90;70.28;99694.28;4996139;28;46534;-79
2021/12/05 13:50:29;;;;;;;;;5.50;4.50;;;;;7.83;70.49;99701.28;4996131;28;45530;-81
2021/12/05 13:53:15;;;;;;;;;6.50;6.00;;;;;7.78;70.83;99707.38;4974977;28;45583;-77
2021/12/05 13:55:59;;;;;;;;;6.75;5.00;;;;;7.78;70.71;99712.59;4968115;28;45493;-77
2021/12/05 13:58:38;;;;;;;;;7.75;6.00;;;;;7.76;71.35;99716.97;4983414;28;45367;-77
2021/12/05 14:01:25;;;;;;;;;3.50;2.00;;;;;7.78;70.74;99716.09;4975490;28;45537;-79
2021/12/05 14:03:58;;;;;;;;;4.50;4.50;;;;;7.77;70.95;99723.97;4957365;28;45391;-79
2021/12/05 14:06:38;;;;;;;;;6.00;6.00;;;;;7.75;71.00;99723.09;4940861;28;45987;-77
2021/12/05 14:09:16;;;;;;;;;7.00;6.00;;;;;7.77;71.19;99722.22;4989856;28;45468;-79
2021/12/05 14:11:47;;;;;;;;;6.00;6.00;;;;;7.75;72.31;99725.72;4996987;28;45360;-77
2021/12/05 14:14:14;;;;;;;;;3.75;3.75;;;;;7.78;71.54;99717.84;4996346;28;45170;-81
2021/12/05 14:16:44;;;;;;;;;6.00;6.00;;;;;7.87;71.98;99718.75;4997383;28;45669;-79
2021/12/05 14:19:13;;;;;;;;;4.50;3.00;;;;;7.89;72.38;99722.25;4995069;28;47220;-78
2021/12/05 14:21:45;;;;;;;;;7.75;7.75;;;;;7.89;71.49;99724.00;4996869;28;45588;-78
2021/12/05 14:24:12;;;;;;;;;8.00;7.00;;;;;7.77;71.53;99714.34;4995103;28;45351;-76
2021/12/05 14:26:40;;;;;;;;;7.25;7.00;;;;;7.81;72.08;99733.59;5015599;28;45426;-77
2021/12/05 14:29:12;;;;;;;;;6.25;6.00;;;;;7.80;71.48;99737.94;5003083;28;46527;-78
2021/12/05 14:32:01;;;;;;;;;6.00;6.00;;;;;7.76;71.65;99743.19;5020251;28;45402;-78
2021/12/05 14:34:28;;;;;;;;;6.00;6.00;;;;;7.79;72.18;99744.06;4997804;28;45472;-79
2021/12/05 14:37:01;;;;;;;;;4.75;4.00;;;;;7.75;72.80;99751.94;5020584;28;45435;-77
2021/12/05 14:39:32;;;;;;;;;7.00;7.00;;;;;7.67;72.34;99737.06;5021814;28;45268;-78
2021/12/05 14:42:02;;;;;;;;;6.50;6.50;;;;;7.74;72.15;99755.44;5020442;28;45616;-76
2021/12/05 14:44:30;;;;;;;;;3.00;3.00;;;;;7.71;72.75;99753.66;5017289;28;45325;-76
2021/12/05 14:46:59;;;;;;;;;3.75;3.75;;;;;7.66;72.85;99763.25;5023422;28;45411;-78
2021/12/05 14:49:29;;;;;;;;;8.25;5.75;;;;;7.52;73.27;99743.97;5019863;28;46891;-77
2021/12/05 14:51:55;;;;;;;;;7.00;6.50;;;;;7.55;74.06;99762.34;5022279;28;45451;-81
2021/12/05 14:54:31;;;;;;;;;8.50;7.00;;;;;7.57;74.11;99769.34;5023280;28;45360;-79
2021/12/05 14:56:57;;;;;;;;;11.25;10.50;;;;;7.50;74.51;99759.69;5030736;28;45202;-91
2021/12/05 14:59:24;;;;;;;;;7.00;7.00;;;;;7.59;74.56;99792.94;5028914;28;46589;-87
2021/12/05 15:01:56;;;;;;;;;8.25;5.00;;;;;7.39;73.69;99764.91;5028751;28;45446;-87
2021/12/05 15:04:26;;;;;;;;;6.25;6.25;;;;;7.53;74.87;99803.38;5030196;28;45534;-87
2021/12/05 15:06:55;;;;;;;;;3.75;3.75;;;;;7.23;73.88;99747.34;5028103;28;45445;-88
2021/12/05 15:09:22;;;;;;;;;5.00;4.00;;;;;7.50;74.05;99800.75;5010247;28;47698;-85
2021/12/05 15:11:51;;;;;;;;;2.25;1.75;;;;;7.50;74.21;99806.88;5010658;28;45274;-84
2021/12/05 15:14:20;;;;;;;;;4.25;4.25;;;;;7.52;74.35;99817.34;5021459;28;45491;-88
2021/12/05 15:17:28;;;;;;;;;3.00;3.00;;;;;7.45;73.92;99807.75;5032771;28;44801;-87
2021/12/05 15:20:00;;;;;;;;;5.25;3.75;;;;;7.55;74.32;99823.50;4954783;28;45592;-88
2021/12/05 15:22:30;;;;;;;;;6.50;6.00;;;;;7.51;75.18;99826.97;4939292;28;45260;-86
2021/12/05 15:24:59;;;;;;;;;2.75;2.75;;;;;7.48;74.98;99826.09;4938490;28;45376;-81
2021/12/05 15:27:27;;;;;;;;;6.25;6.25;;;;;7.48;75.23;99834.81;4929374;28;45404;-84
2021/12/05 15:29:59;;;;;;;;;8.25;5.50;;;;;7.47;75.90;99829.56;4922943;28;48416;-82
2021/12/05 15:32:28;;;;;;;;;2.25;2.25;;;;;7.45;74.98;99840.06;4945184;28;45575;-78
2021/12/05 15:34:58;;;;;;;;;6.75;5.00;;;;;7.35;75.96;99838.22;4943509;28;45349;-79
2021/12/05 15:37:24;;;;;;;;;6.75;6.75;;;;;7.31;76.18;99844.31;4943961;28;45291;-79
2021/12/05 15:39:53;;;;;;;;;7.75;6.00;;;;;7.28;76.13;99846.94;4938734;28;47780;-83
2021/12/05 15:42:26;;;;;;;;;7.50;6.75;;;;;7.23;76.11;99852.13;4924677;28;45228;-84
2021/12/05 15:44:54;;;;;;;;;9.75;4.00;;;;;7.20;76.64;99862.59;4916017;28;45819;-81
2021/12/05 15:47:28;;;;;;;;;6.00;6.00;;;;;7.25;76.21;99860.00;4943341;28;45470;-83
2021/12/05 15:49:59;;;;;;;;;7.75;7.75;;;;;7.29;76.06;99877.50;4945869;28;46345;-80
2021/12/05 15:52:33;;;;;;;;;5.75;5.75;;;;;7.31;76.83;99879.25;4944740;28;45592;-79
2021/12/05 15:55:01;;;;;;;;;5.00;5.00;;;;;7.30;77.15;99876.63;4969920;28;45416;-81
2021/12/05 15:57:36;;;;;;;;;6.00;6.00;;;;;7.28;76.22;99888.84;5033727;28;44777;-86
2021/12/05 16:00:10;;;;;;;;;10.00;6.50;;;;;7.20;75.96;99885.28;5032180;28;46324;-81
2021/12/05 16:02:35;;;;;;;;;5.00;5.00;;;;;7.25;76.47;99891.44;5029849;28;45502;-83
2021/12/05 16:05:01;;;;;;;;;5.00;5.00;;;;;7.21;76.09;99908.88;5028388;28;45497;-79
2021/12/05 16:07:29;;;;;;;;;7.50;7.00;;;;;7.18;75.74;99915.84;5031345;28;45204;-80
2021/12/05 16:10:10;;;;;;;;;5.75;5.75;;;;;7.19;76.09;99931.56;5030723;28;45556;-82
2021/12/05 16:12:41;;;;;;;;;6.75;6.75;;;;;7.24;75.77;99924.59;5028536;28;45312;-83
2021/12/05 16:15:08;;;;;;;;;7.25;6.50;;;;;7.22;76.00;99930.72;5026413;28;45359;-82
2021/12/05 16:17:34;;;;;;;;;7.00;7.00;;;;;7.25;75.33;99935.97;5008568;28;45371;-80
2021/12/05 16:20:14;;;;;;;;;6.25;6.00;;;;;7.31;75.59;99943.88;5025938;28;46448;-86
2021/12/05 16:23:12;;;;;;;;;7.25;6.00;;;;;7.29;74.98;99937.75;5024251;28;45294;-86
2021/12/05 16:25:49;;;;;;;;;6.25;6.25;;;;;7.33;75.01;99944.75;5013745;28;45313;-82
2021/12/05 16:28:16;;;;;;;;;4.50;4.50;;;;;7.28;75.14;99947.34;5025076;28;45447;-80
2021/12/05 16:30:58;;;;;;;;;6.00;5.00;;;;;7.27;75.16;99950.84;5022113;28;45373;-82
2021/12/05 16:33:23;;;;;;;;;7.50;7.25;;;;;7.34;75.20;99960.47;5022292;28;45739;-82
2021/12/05 16:35:51;;;;;;;;;5.00;5.00;;;;;7.32;74.61;99953.50;5019366;28;45454;-85
2021/12/05 16:38:40;;;;;;;;;9.25;8.00;;;;;7.33;74.42;99961.34;5019351;28;45325;-84
2021/12/05 16:41:11;;;;;;;;;7.50;7.50;;;;;7.33;75.07;99966.59;5018462;28;46050;-85
2021/12/05 16:43:45;;;;;;;;;6.00;6.00;;;;;7.31;74.99;99965.72;5019302;28;46884;-84
2021/12/05 16:46:16;;;;;;;;;9.00;6.50;;;;;7.18;75.50;99947.28;5018417;28;45480;-82
2021/12/05 16:48:44;;;;;;;;;5.00;5.00;;;;;7.32;75.05;99988.41;5021739;28;45629;-83
2021/12/05 16:51:23;;;;;;;;;6.75;6.00;;;;;7.36;75.20;99984.97;5022249;28;45418;-79
2021/12/05 16:53:52;;;;;;;;;9.00;7.00;;;;;7.35;75.42;99985.84;4988233;28;45235;-81
2021/12/05 16:56:41;;;;;;;;;7.50;6.75;;;;;7.26;75.27;99979.63;5006468;28;45297;-80
2021/12/05 16:59:12;;;;;;;;;7.75;7.75;;;;;7.33;74.92;99995.41;5008318;28;45174;-86
2021/12/05 17:01:38;;;;;;;;;6.50;6.00;;;;;7.17;74.26;99966.47;5008438;28;45311;-83
2021/12/05 17:04:04;;;;;;;;;8.50;7.00;;;;;6.97;74.97;99934.84;5025211;28;45870;-85
2021/12/05 17:06:43;;;;;;;;;9.00;7.00;;;;;7.37;75.25;99993.72;5024849;28;45315;-86
2021/12/05 17:09:11;;;;;;;;;11.50;6.50;;;;;7.29;75.10;99983.16;5021509;28;45427;-82
2021/12/05 17:11:38;;;;;;;;;7.25;7.00;;;;;7.44;74.58;100008.59;5004743;28;48253;-83
2021/12/05 17:14:04;;;;;;;;;8.75;8.00;;;;;7.45;74.58;100007.75;5003080;28;45914;-79
2021/12/05 17:16:32;;;;;;;;;11.50;8.75;;;;;7.47;75.12;100013.00;5035127;28;45444;-81
2021/12/05 17:19:01;;;;;;;;;11.25;8.00;;;;;7.49;74.32;100019.13;5020226;28;45394;-83
2021/12/05 17:21:40;;;;;;;;;7.75;7.75;;;;;7.43;74.74;100019.94;5020185;28;46490;-80
2021/12/05 17:24:10;;;;;;;;;6.50;4.25;;;;;7.40;75.22;100017.31;5001367;28;45979;-83
2021/12/05 17:26:35;;;;;;;;;6.00;6.00;;;;;7.39;75.13;100023.41;5001260;28;45306;-79
2021/12/05 17:29:12;;;;;;;;;11.00;7.00;;;;;7.33;75.04;100018.13;5017928;28;45377;-79
2021/12/05 17:31:44;;;;;;;;;5.75;5.75;;;;;7.24;74.45;99997.94;5016727;28;46282;-84
2021/12/05 17:34:13;;;;;;;;;7.00;7.00;;;;;7.32;74.59;100014.63;5016654;28;45550;-80
2021/12/05 17:36:42;;;;;;;;;7.25;7.25;;;;;7.41;74.87;100032.16;5017653;28;45429;-80